Time;durP1;ratioP1;P1;durP2;ratioP2;P2;SDS_P1;SDS_P2;PMS_P1;PMS_P2;Temp;Humidity;BMP_temperature;BMP_pressure;BME280_temperature;BME280_humidity;BME280_pressure;Samples;Min_cycle;Max_cycle;Signal;HPM_P1;HPM_P2
2022/09/20 00:04:48;;;;;;;10.45;1.30;;;;;;;9.57;94.92;101765.94;10173559;29;20471;-84
2022/09/20 00:09:50;;;;;;;6.95;1.35;;;;;;;9.54;94.99;101764.09;10171259;29;20144;-86
2022/09/20 00:14:52;;;;;;;8.52;1.52;;;;;;;9.57;94.85;101761.59;10160369;29;20047;-86
2022/09/20 00:19:53;;;;;;;10.77;1.75;;;;;;;9.59;94.96;101761.66;10182434;29;20050;-86
2022/09/20 00:24:55;;;;;;;8.02;1.42;;;;;;;9.46;94.69;101761.19;10177641;29;20047;-86
2022/09/20 00:29:57;;;;;;;8.90;1.17;;;;;;;9.32;94.75;101763.31;10179477;29;20075;-86
2022/09/20 00:35:09;;;;;;;10.38;1.60;;;;;;;9.27;94.75;101759.59;10173532;29;20084;-86
2022/09/20 00:40:20;;;;;;;10.15;1.40;;;;;;;9.26;94.59;101770.88;10175040;29;20130;-85
2022/09/20 00:45:28;;;;;;;10.10;1.75;;;;;;;9.14;94.57;101771.34;10175023;29;21215;-85
2022/09/20 00:50:32;;;;;;;12.40;1.55;;;;;;;9.10;94.63;101776.38;10174890;29;20047;-85
2022/09/20 00:55:37;;;;;;;11.48;1.33;;;;;;;9.01;94.79;101769.94;10170987;29;20118;-86
2022/09/20 01:00:41;;;;;;;13.73;1.75;;;;;;;8.93;94.58;101789.66;10166543;29;20151;-85
2022/09/20 01:05:44;;;;;;;7.85;1.30;;;;;;;8.90;94.85;101786.91;10173955;29;20042;-85
2022/09/20 01:10:46;;;;;;;14.45;1.75;;;;;;;8.91;94.88;101783.47;10172395;29;20047;-85
2022/09/20 01:15:49;;;;;;;10.02;1.45;;;;;;;8.91;95.08;101791.31;10165737;29;20058;-84
2022/09/20 01:20:51;;;;;;;16.10;2.75;;;;;;;8.84;95.21;101789.28;10181466;29;20573;-85
2022/09/20 01:26:14;;;;;;;13.77;2.38;;;;;;;8.79;95.04;101793.44;10170431;29;20674;-84
2022/09/20 01:31:52;;;;;;;8.15;1.05;;;;;;;8.71;95.24;101797.44;10175211;29;20043;-84
2022/09/20 01:37:10;;;;;;;16.17;2.28;;;;;;;8.63;95.25;101794.53;10175548;29;20393;-84
2022/09/20 01:42:16;;;;;;;14.35;2.03;;;;;;;-147.53;100.00;57128.34;10176376;29;20047;-84
2022/09/20 01:47:47;;;;;;;10.23;1.33;;;;;;;8.63;95.25;101794.53;10170240;29;20152;-84
2022/09/20 01:53:14;;;;;;;10.05;1.48;;;;;;;8.47;95.68;101804.34;10175629;29;20051;-84
2022/09/20 01:58:56;;;;;;;13.73;1.63;;;;;;;8.47;95.70;101808.69;10157596;29;20047;-84
2022/09/20 02:04:52;;;;;;;14.10;1.48;;;;;;;8.48;95.58;101811.34;10169541;29;20047;-84
2022/09/20 02:09:59;;;;;;;14.23;1.60;;;;;;;8.36;95.55;101809.88;10192226;28;20138;-84
2022/09/20 02:15:35;;;;;;;12.52;1.60;;;;;;;8.35;95.51;101813.31;10162300;29;20059;-84
2022/09/20 02:20:55;;;;;;;9.68;1.25;;;;;;;8.24;95.75;101816.38;10175063;29;20106;-83
2022/09/20 02:25:56;;;;;;;15.53;1.63;;;;;;;8.23;95.56;101798.06;10181306;29;20043;-83
2022/09/20 02:31:19;;;;;;;7.95;1.35;;;;;;;8.21;95.84;101795.38;10177113;29;20564;-83
2022/09/20 02:36:38;;;;;;;7.70;1.13;;;;;;;8.19;95.67;101794.41;10163466;29;20139;-83
2022/09/20 02:42:25;;;;;;;14.05;1.60;;;;;;;8.23;95.87;101804.16;10196666;28;20218;-83
2022/09/20 02:47:38;;;;;;;7.32;1.20;;;;;;;8.23;95.55;101814.59;10156037;29;20091;-83
2022/09/20 02:52:58;;;;;;;5.93;1.25;;;;;;;8.17;95.63;101822.16;10185476;29;20239;-83
2022/09/20 02:58:35;;;;;;;;;;;;;;;8.25;95.93;101817.28;10179222;29;20051;-83
2022/09/20 03:03:43;;;;;;;5.25;1.10;;;;;;;8.17;95.91;101830.00;10178162;29;20378;-83
2022/09/20 03:09:17;;;;;;;9.68;1.75;;;;;;;8.14;96.10;101824.63;10185864;28;20071;-82
2022/09/20 03:15:01;;;;;;;14.82;1.67;;;;;;;8.26;96.17;101819.06;10143740;29;20456;-83
2022/09/20 03:20:26;;;;;;;12.48;1.55;;;;;;;8.36;96.16;101828.16;10171081;29;20051;-83
2022/09/20 03:25:38;;;;;;;6.65;1.30;;;;;;;8.47;96.28;101830.44;10186335;29;20044;-83
2022/09/20 03:30:55;;;;;;;14.15;1.73;;;;;;;-147.53;96.38;84115.41;10176758;29;20044;-82
2022/09/20 03:36:23;;;;;;;3.97;1.20;;;;;;;8.62;96.50;101830.19;10184769;29;20491;-83
2022/09/20 03:41:52;;;;;;;10.02;1.65;;;;;;;8.65;96.57;101832.94;10191333;29;20493;-83
2022/09/20 03:47:14;;;;;;;8.30;1.45;;;;;;;8.73;96.64;101834.97;10204500;29;20484;-83
2022/09/20 03:52:30;;;;;;;10.48;1.50;;;;;;;8.90;96.80;101841.75;10177723;29;20423;-82
2022/09/20 03:57:54;;;;;;;7.10;1.45;;;;;;;8.92;96.60;101828.78;10173783;29;20543;-85
2022/09/20 04:03:23;;;;;;;7.03;1.00;;;;;;;8.99;96.97;101839.53;10174304;28;20076;-85
2022/09/20 04:09:00;;;;;;;12.02;1.63;;;;;;;9.03;96.82;101828.38;10193104;28;20058;-85
2022/09/20 04:14:22;;;;;;;9.93;1.77;;;;;;;9.11;96.87;101840.84;10187983;29;20048;-85
2022/09/20 04:19:34;;;;;;;7.22;1.10;;;;;;;9.05;96.67;101843.22;10173460;29;20486;-84
2022/09/20 04:24:47;;;;;;;8.68;1.10;;;;;;;9.01;96.67;101835.25;10173641;29;20046;-84
2022/09/20 04:29:57;;;;;;;7.40;1.10;;;;;;;8.99;96.36;101846.47;10176114;29;20131;-85
2022/09/20 04:40:48;;;;;;;6.32;0.75;;;;;;;8.90;96.51;101857.44;10174286;29;20139;-84
2022/09/20 04:46:44;;;;;;;10.65;1.58;;;;;;;8.83;96.27;101860.66;10166848;29;20044;-83
2022/09/20 04:52:09;;;;;;;3.28;1.00;;;;;;;8.71;96.27;101860.09;10170958;29;20598;-83
2022/09/20 04:57:16;;;;;;;12.57;1.52;;;;;;;8.64;96.24;101866.81;10174613;29;20619;-84
2022/09/20 05:02:38;;;;;;;3.60;1.02;;;;;;;8.59;96.24;101871.84;10175815;29;20052;-84
2022/09/20 05:08:17;;;;;;;10.52;1.20;;;;;;;8.51;95.93;101882.78;10182357;29;20047;-83
2022/09/20 05:13:46;;;;;;;6.80;1.20;;;;;;;8.44;96.38;101885.13;10172935;29;20083;-83
2022/09/20 05:19:02;;;;;;;8.63;1.33;;;;;;;8.34;96.11;101889.84;10176862;29;20047;-83
2022/09/20 05:24:27;;;;;;;5.43;1.17;;;;;;;8.29;96.31;101882.69;10167343;29;20052;-83
2022/09/20 05:29:55;;;;;;;4.85;1.40;;;;;;;8.18;96.22;101883.97;10176677;29;20131;-83
2022/09/20 05:35:20;;;;;;;9.07;1.90;;;;;;;8.09;96.14;101893.97;10180734;29;20597;-81
2022/09/20 05:40:22;;;;;;;5.50;1.85;;;;;;;8.02;96.23;101900.63;10180926;29;20504;-82
2022/09/20 05:45:50;;;;;;;7.20;1.70;;;;;;;8.04;96.19;101896.38;10182122;29;20123;-82
2022/09/20 05:51:07;;;;;;;7.88;1.60;;;;;;;8.12;96.08;101904.53;10211302;28;20048;-82
2022/09/20 05:56:24;;;;;;;11.85;2.95;;;;;;;8.32;96.33;101914.16;10181366;29;20048;-81
2022/09/20 06:01:31;;;;;;;7.40;1.38;;;;;;;8.52;96.40;101908.94;10192032;29;20059;-81
2022/09/20 06:06:53;;;;;;;7.07;2.00;;;;;;;8.75;96.66;101915.19;10187289;29;20589;-82
2022/09/20 06:11:55;;;;;;;8.25;1.60;;;;;;;8.99;96.63;101917.00;10189014;29;20050;-81
2022/09/20 06:17:31;;;;;;;7.07;1.20;;;;;;;9.15;96.97;101906.38;10168930;29;20043;-82
2022/09/20 06:22:41;;;;;;;13.75;1.90;;;;;;;9.41;96.70;101910.84;10218099;28;20040;-80
2022/09/20 06:27:58;;;;;;;13.55;1.55;;;;;;;9.67;96.67;101909.28;10181855;29;20074;-80
2022/09/20 06:32:59;;;;;;;14.80;2.25;;;;;;;9.76;96.63;101914.88;10191214;29;20047;-80
2022/09/20 06:43:57;;;;;;;7.15;1.35;;;;;;;-147.53;100.00;57128.34;10178231;29;20036;-84
2022/09/20 06:48:59;;;;;;;5.28;1.38;;;;;;;-147.53;100.00;57128.34;10172100;29;20071;-85
2022/09/20 06:54:02;;;;;;;8.00;1.10;;;;;;;-147.53;96.28;101927.88;10177031;29;20048;-84
2022/09/20 06:59:13;;;;;;;8.85;1.38;;;;;;;10.31;95.43;101949.16;10172395;29;20097;-84
2022/09/20 07:04:14;;;;;;;16.95;1.77;;;;;;;10.42;95.08;101953.13;10173368;29;20096;-83
2022/09/20 07:09:16;;;;;;;7.15;1.52;;;;;;;10.59;94.77;101958.94;10179605;29;20142;-84
2022/09/20 07:14:18;;;;;;;9.93;1.65;;;;;;;10.56;94.46;101961.47;10173704;29;20040;-84
2022/09/20 07:19:22;;;;;;;8.98;1.25;;;;;;;10.59;94.37;101966.81;10193436;28;20056;-83
2022/09/20 07:24:23;;;;;;;6.75;1.23;;;;;;;10.66;94.17;101973.16;10179579;28;20095;-84
2022/09/20 07:29:26;;;;;;;9.38;1.27;;;;;;;10.71;93.95;101976.84;10173214;29;20051;-83
2022/09/20 07:34:28;;;;;;;8.50;1.40;;;;;;;-147.53;100.00;57128.34;10175249;29;20046;-82
2022/09/20 07:39:29;;;;;;;8.18;1.13;;;;;;;10.79;93.70;101981.50;10160424;29;20773;-83
2022/09/20 07:44:31;;;;;;;7.10;1.02;;;;;;;10.87;100.00;101984.41;10168820;29;20043;-83
2022/09/20 07:49:33;;;;;;;5.88;1.02;;;;;;;-147.53;100.00;57128.34;10178820;29;20051;-82
2022/09/20 07:54:35;;;;;;;5.40;1.25;;;;;;;-147.53;100.00;57128.34;10166006;29;20039;-82
2022/09/20 07:59:44;;;;;;;6.32;1.27;;;;;;;10.87;93.44;101984.41;10172409;29;20356;-82
2022/09/20 08:04:48;;;;;;;7.22;1.10;;;;;;;11.45;92.41;101992.44;10181255;29;20571;-82
2022/09/20 08:09:50;;;;;;;8.32;1.45;;;;;;;11.68;92.00;101995.81;10173953;29;20665;-82
2022/09/20 08:14:52;;;;;;;6.88;1.45;;;;;;;11.91;91.29;102000.91;10182320;29;20039;-82
2022/09/20 08:19:57;;;;;;;11.63;0.93;;;;;;;12.12;90.75;102000.69;10180051;29;20028;-84
2022/09/20 08:24:59;;;;;;;5.05;1.25;;;;;;;13.13;90.37;101996.50;10159205;29;20052;-83
2022/09/20 08:30:01;;;;;;;7.63;1.15;;;;;;;13.61;88.87;102006.50;10173214;29;20047;-82
2022/09/20 08:35:03;;;;;;;5.30;1.08;;;;;;;14.08;86.64;102005.78;10175639;29;20055;-81
2022/09/20 08:40:05;;;;;;;10.95;1.33;;;;;;;15.09;84.85;102006.09;10183609;29;20051;-80
2022/09/20 08:45:18;;;;;;;5.85;1.00;;;;;;;15.79;82.41;102008.13;10210416;28;20103;-80
2022/09/20 08:50:36;;;;;;;3.97;1.00;;;;;;;16.15;79.07;102012.16;10173335;29;22668;-81
2022/09/20 08:55:40;;;;;;;5.10;0.98;;;;;;;16.64;77.68;102003.97;10148496;29;20123;-80
2022/09/20 09:00:45;;;;;;;5.65;1.00;;;;;;;17.09;75.62;102027.41;10159426;29;20170;-81
2022/09/20 09:05:51;;;;;;;4.30;0.90;;;;;;;16.60;73.70;102029.47;10157569;29;20118;-80
2022/09/20 09:11:07;;;;;;;4.35;0.70;;;;;;;15.64;73.57;102025.50;10172580;29;20055;-80
2022/09/20 09:16:14;;;;;;;6.13;1.00;;;;;;;15.38;74.26;102020.66;10167465;29;20076;-80
2022/09/20 09:21:28;;;;;;;6.32;0.73;;;;;;;14.87;74.15;102032.06;10175276;29;20377;-80
2022/09/20 09:26:39;;;;;;;6.03;0.90;;;;;;;14.79;74.75;102029.28;10181159;29;20416;-79
2022/09/20 09:31:43;;;;;;;3.20;0.88;;;;;;;14.85;75.38;102033.78;10195297;29;20743;-80
2022/09/20 09:36:45;;;;;;;5.90;1.08;;;;;;;14.53;75.29;102036.59;10185524;29;20555;-80
2022/09/20 09:41:47;;;;;;;4.40;0.77;;;;;;;14.57;75.16;102042.84;10200076;28;20118;-80
2022/09/20 09:46:52;;;;;;;8.05;1.83;;;;;;;15.61;75.76;102035.09;10173548;29;20052;-80
2022/09/20 09:52:15;;;;;;;4.07;0.63;;;;;;;15.52;73.98;102047.31;10179278;29;20123;-79
2022/09/20 09:57:47;;;;;;;2.83;0.80;;;;;;;15.77;73.15;102044.19;10179925;29;20397;-79
2022/09/20 10:03:26;;;;;;;3.05;0.75;;;;;;;15.83;72.42;102045.19;10172333;28;20058;-79
2022/09/20 10:08:55;;;;;;;7.47;1.85;;;;;;;15.32;71.60;102049.59;10182052;29;20531;-79
2022/09/20 10:14:32;;;;;;;3.92;1.13;;;;;;;15.32;71.58;102046.06;10169716;29;20500;-79
2022/09/20 10:19:49;;;;;;;7.88;1.83;;;;;;;15.38;71.25;102044.41;10183187;29;20048;-79
2022/09/20 10:25:13;;;;;;;2.40;0.63;;;;;;;15.80;70.31;102042.50;10180265;29;20032;-79
2022/09/20 10:30:19;;;;;;;5.20;1.00;;;;;;;16.15;69.72;102034.19;10190140;29;20060;-79
2022/09/20 10:35:36;;;;;;;4.53;0.70;;;;;;;16.06;69.43;102045.53;10177330;29;20043;-79
2022/09/20 10:46:32;;;;;;;3.83;0.73;;;;;;;15.48;68.28;102057.78;10189776;29;20075;-79
2022/09/20 10:52:02;;;;;;;7.70;0.80;;;;;;;15.28;68.74;102050.41;10191519;29;20047;-79
2022/09/20 10:57:30;;;;;;;5.70;0.73;;;;;;;15.85;68.49;102050.47;10197919;29;20050;-78
2022/09/20 11:02:49;;;;;;;1.52;0.40;;;;;;;16.73;67.01;102057.84;10184090;29;20139;-79
2022/09/20 11:08:05;;;;;;;2.28;0.70;;;;;;;17.09;65.01;102064.44;10195304;29;20076;-79
2022/09/20 11:13:26;;;;;;;5.88;0.77;;;;;;;16.52;63.60;102049.66;10182086;29;20083;-78
2022/09/20 11:18:40;;;;;;;8.55;2.17;;;;;;;17.08;63.85;102048.56;10186941;29;20044;-78
2022/09/20 11:24:00;;;;;;;7.43;0.93;;;;;;;16.85;62.93;102061.50;10169764;29;20091;-79
2022/09/20 11:29:21;;;;;;;6.30;0.88;;;;;;;16.00;63.13;102066.59;10189721;29;20052;-78
2022/09/20 11:34:36;;;;;;;2.72;0.47;;;;;;;14.87;64.88;102087.44;10190913;29;20044;-78
2022/09/20 11:39:54;;;;;;;2.65;0.80;;;;;;;14.00;67.47;102095.16;10186495;29;20055;-82
2022/09/20 11:44:56;;;;;;;4.55;0.75;;;;;;;14.00;67.47;102095.16;10187432;29;20104;-79
2022/09/20 11:50:31;;;;;;;2.78;0.60;;;;;;;13.45;71.52;102094.69;10182927;29;20054;-80
2022/09/20 11:55:49;;;;;;;2.88;0.55;;;;;;;13.22;73.42;102107.19;10193918;29;20047;-79
2022/09/20 12:00:54;;;;;;;6.65;0.82;;;;;;;13.11;74.85;102108.66;10190366;29;20046;-81
2022/09/20 12:07:06;;;;;;;5.30;1.00;;;;;;;13.06;76.67;102105.88;10178581;29;20475;-84
2022/09/20 12:12:45;;;;;;;4.03;1.00;;;;;;;13.04;78.58;102092.66;10018727;29;20051;-87
2022/09/20 12:17:47;;;;;;;6.82;1.05;;;;;;;13.03;79.36;102090.00;10181664;29;20464;-86
2022/09/20 12:22:49;;;;;;;2.90;0.70;;;;;;;13.06;79.69;102085.75;10174388;28;20039;-91
2022/09/20 12:27:56;;;;;;;6.13;1.00;;;;;;;13.04;79.75;102076.91;10159235;29;20078;-90
2022/09/20 12:33:01;;;;;;;4.20;1.10;;;;;;;13.43;79.77;102075.34;10167453;29;20052;-89
2022/09/20 12:38:30;;;;;;;6.53;1.00;;;;;;;13.78;79.59;102080.59;10165524;29;20467;-87
2022/09/20 12:44:03;;;;;;;5.45;1.10;;;;;;;14.04;79.32;102086.50;10164099;29;20519;-86
2022/09/20 12:54:52;;;;;;;4.00;0.98;;;;;;;14.48;78.36;102085.72;10173096;29;20048;-85
2022/09/20 13:00:00;;;;;;;3.05;0.98;;;;;;;14.68;77.98;102083.53;10177804;29;20390;-84
2022/09/20 13:05:01;;;;;;;7.53;1.40;;;;;;;14.46;76.62;102087.44;10174403;29;20071;-83
2022/09/20 13:10:22;;;;;;;4.93;1.10;;;;;;;14.77;76.34;102093.38;10180511;29;20044;-83
2022/09/20 13:15:25;;;;;;;8.88;1.17;;;;;;;14.85;75.86;102089.16;10182216;29;20050;-82
2022/09/20 13:20:33;;;;;;;3.70;0.60;;;;;;;14.87;75.31;102087.44;10193377;28;20060;-82
2022/09/20 13:25:38;;;;;;;4.10;0.88;;;;;;;15.00;73.60;102081.53;10184693;29;20036;-83
2022/09/20 13:30:40;;;;;;;7.10;0.80;;;;;;;15.16;73.43;102084.47;10160317;29;20037;-82
2022/09/20 13:35:45;;;;;;;4.45;0.88;;;;;;;15.58;72.40;102082.56;10169539;29;20721;-82
2022/09/20 13:40:49;;;;;;;7.47;1.13;;;;;;;15.42;70.91;102090.25;10182220;29;20043;-81
2022/09/20 13:45:55;;;;;;;7.47;1.20;;;;;;;15.21;70.69;102096.00;10188464;29;20111;-80
2022/09/20 13:50:57;;;;;;;4.43;0.80;;;;;;;14.71;71.06;102107.31;10188045;29;20052;-80
2022/09/20 13:56:28;;;;;;;3.45;0.85;;;;;;;14.24;73.30;102121.19;10177265;29;20423;-86
2022/09/20 14:01:34;;;;;;;8.52;1.45;;;;;;;13.83;75.15;102121.09;10161346;29;20052;-84
2022/09/20 14:06:41;;;;;;;7.40;0.82;;;;;;;13.61;75.85;102131.06;10171696;28;20507;-90
2022/09/20 14:11:44;;;;;;;4.10;0.85;;;;;;;13.84;76.45;102109.72;10187470;29;20107;-89
2022/09/20 14:16:50;;;;;;;3.53;0.77;;;;;;;14.01;76.21;102111.88;10181410;29;20067;-88
2022/09/20 14:22:04;;;;;;;4.05;0.80;;;;;;;13.85;75.93;102119.38;10194139;28;20491;-87
2022/09/20 14:27:11;;;;;;;4.43;0.80;;;;;;;13.82;76.36;102121.06;10180366;29;20043;-86
2022/09/20 14:32:16;;;;;;;7.63;0.77;;;;;;;13.86;77.16;102120.28;10181113;29;20554;-85
2022/09/20 14:37:31;;;;;;;7.70;1.02;;;;;;;13.83;77.74;102123.72;10177525;29;20058;-85
2022/09/20 14:42:42;;;;;;;4.43;0.98;;;;;;;13.76;78.45;102116.53;10180158;29;20149;-85
2022/09/20 14:47:58;;;;;;;9.65;1.35;;;;;;;13.56;78.56;102124.81;10171705;29;20122;-84
2022/09/20 14:53:02;;;;;;;5.82;1.20;;;;;;;13.42;78.77;102137.59;10166600;29;20166;-81
2022/09/20 14:58:09;;;;;;;8.23;1.25;;;;;;;13.14;78.90;102135.03;10188551;29;20058;-81
2022/09/20 15:03:14;;;;;;;5.13;1.05;;;;;;;12.79;79.46;102133.16;10191600;29;20053;-83
2022/09/20 15:08:26;;;;;;;7.05;1.35;;;;;;;12.57;80.47;102126.38;10169234;29;20055;-85
2022/09/20 15:13:28;;;;;;;5.78;1.35;;;;;;;12.59;81.27;102123.78;10175968;29;20052;-87
2022/09/20 15:18:38;;;;;;;6.32;1.90;;;;;;;12.63;82.07;102117.78;10172570;29;20048;-87
2022/09/20 15:23:57;;;;;;;6.40;1.55;;;;;;;12.62;82.56;102123.88;10162674;29;20058;-86
2022/09/20 15:29:02;;;;;;;7.50;1.40;;;;;;;12.64;83.08;102130.97;10173851;29;20062;-86
2022/09/20 15:34:11;;;;;;;9.90;1.27;;;;;;;12.53;82.67;102132.38;10160256;29;20040;-85
2022/09/20 15:39:14;;;;;;;10.50;1.40;;;;;;;12.54;82.48;102132.41;10179127;29;20048;-85
2022/09/20 15:44:25;;;;;;;9.88;1.58;;;;;;;12.62;82.67;102126.50;10182463;28;20048;-84
2022/09/20 15:49:29;;;;;;;9.65;1.70;;;;;;;12.62;82.91;102134.41;10177495;29;20054;-84
2022/09/20 15:54:31;;;;;;;6.05;1.40;;;;;;;12.48;82.91;102126.09;10169144;29;20063;-83
2022/09/20 15:59:33;;;;;;;8.60;1.63;;;;;;;12.24;83.31;102127.13;10177160;28;20076;-82
2022/09/20 16:04:36;;;;;;;7.03;1.40;;;;;;;12.15;83.82;102127.72;10175899;29;20064;-83
2022/09/20 16:09:38;;;;;;;8.27;2.28;;;;;;;12.13;84.17;102133.75;10184353;29;20063;-82
2022/09/20 16:14:40;;;;;;;13.35;3.72;;;;;;;12.09;84.49;102132.75;10184407;29;20048;-82
2022/09/20 16:19:45;;;;;;;9.40;2.30;;;;;;;12.07;84.64;102137.09;10198946;29;20044;-82
2022/09/20 16:24:46;;;;;;;7.38;2.13;;;;;;;12.05;84.79;102144.00;10192498;28;20040;-81
2022/09/20 16:29:48;;;;;;;10.98;3.67;;;;;;;11.99;85.02;102142.09;10203817;28;20051;-81
2022/09/20 16:34:53;;;;;;;10.30;2.25;;;;;;;11.92;85.25;102155.81;10192901;29;20157;-81
2022/09/20 16:39:56;;;;;;;6.85;2.53;;;;;;;11.81;85.18;102162.41;10192992;29;20040;-81
2022/09/20 16:44:58;;;;;;;8.50;3.00;;;;;;;11.69;85.46;102162.88;10195513;29;20051;-81
2022/09/20 16:50:00;;;;;;;6.88;1.80;;;;;;;11.60;85.68;102158.22;10198638;29;20032;-83
2022/09/20 16:55:03;;;;;;;7.47;1.80;;;;;;;11.55;86.04;102166.78;10185712;29;20052;-83
2022/09/20 17:00:06;;;;;;;5.35;2.00;;;;;;;11.43;86.15;102164.63;10179361;29;20636;-83
2022/09/20 17:05:07;;;;;;;7.28;2.40;;;;;;;11.32;86.51;102164.22;10195807;29;20059;-81
2022/09/20 17:10:10;;;;;;;8.57;2.40;;;;;;;11.25;86.67;102175.34;10211373;29;20047;-81
2022/09/20 17:15:12;;;;;;;11.60;3.10;;;;;;;11.09;86.92;102190.50;10207281;29;20119;-80
2022/09/20 17:20:14;;;;;;;21.48;9.82;;;;;;;10.99;87.20;102177.88;10202511;29;20068;-81
2022/09/20 17:25:15;;;;;;;11.73;4.80;;;;;;;10.84;87.71;102186.06;10199283;29;20052;-80
2022/09/20 17:30:17;;;;;;;12.18;4.30;;;;;;;10.71;88.03;102200.41;10204305;29;20051;-80
2022/09/20 17:35:21;;;;;;;13.93;4.80;;;;;;;10.56;88.17;102197.19;10228142;28;20139;-80
2022/09/20 17:40:22;;;;;;;11.57;4.43;;;;;;;10.38;88.42;102208.69;10220654;28;20051;-79
2022/09/20 17:45:24;;;;;;;10.45;3.80;;;;;;;10.24;88.83;102209.84;10199715;29;20040;-78
2022/09/20 17:50:26;;;;;;;10.60;4.38;;;;;;;10.09;88.94;102208.34;10196239;28;20067;-80
2022/09/20 17:55:28;;;;;;;29.23;12.23;;;;;;;9.95;89.28;102219.97;10213194;29;20417;-80
2022/09/20 18:00:30;;;;;;;35.92;15.25;;;;;;;9.95;89.28;102219.97;10204508;29;20051;-80
2022/09/20 18:05:32;;;;;;;27.80;13.02;;;;;;;9.64;89.53;102226.50;10200387;29;20063;-80
2022/09/20 18:10:33;;;;;;;21.08;9.75;;;;;;;9.54;89.88;102232.16;10190103;29;20123;-80
2022/09/20 18:15:35;;;;;;;16.70;7.78;;;;;;;9.42;90.04;102239.44;10192781;29;20055;-80
2022/09/20 18:20:36;;;;;;;14.98;7.70;;;;;;;9.29;90.25;102244.13;10197643;29;20165;-80
2022/09/20 18:31:02;;;;;;;;;;;;;;;9.11;90.64;102252.00;10197109;29;20055;-80
2022/09/20 18:36:30;;;;;;;32.13;11.88;;;;;;;9.01;90.53;102261.13;10189532;29;19970;-80
2022/09/20 18:41:34;;;;;;;27.23;19.50;;;;;;;8.94;91.06;102266.88;10186942;29;20050;-80
2022/09/20 18:46:36;;;;;;;21.27;14.57;;;;;;;8.87;91.24;102264.78;10216908;28;20114;-80
2022/09/20 18:51:38;;;;;;;29.00;12.65;;;;;;;8.74;91.42;102265.94;10194306;29;20091;-80
2022/09/20 18:56:46;;;;;;;25.33;12.93;;;;;;;8.58;91.41;102277.34;10190901;29;20046;-80
2022/09/20 19:01:51;;;;;;;25.45;11.80;;;;;;;8.46;91.48;102279.34;10193680;29;20118;-80
2022/09/20 19:07:22;;;;;;;26.40;11.27;;;;;;;8.39;91.60;102279.84;10189139;29;20588;-80
2022/09/20 19:12:36;;;;;;;24.80;10.70;;;;;;;8.25;91.95;102286.97;10194430;29;20052;-80
2022/09/20 19:17:55;;;;;;;33.92;12.88;;;;;;;8.12;91.87;102295.88;10198502;28;20040;-80
2022/09/20 19:23:23;;;;;;;32.90;12.70;;;;;;;8.03;91.98;102295.41;10197840;29;20044;-80
2022/09/20 19:28:25;;;;;;;25.55;11.35;;;;;;;-147.53;100.00;57128.34;10197449;29;20172;-81
2022/09/20 19:33:28;;;;;;;21.90;9.60;;;;;;;-147.53;100.00;57128.34;10196965;28;20102;-80
2022/09/20 19:38:36;;;;;;;22.13;8.93;;;;;;;-147.53;nan;57128.34;10204546;28;20067;-80
2022/09/20 19:44:03;;;;;;;21.95;9.88;;;;;;;7.63;100.00;75404.28;10193438;29;20094;-80
2022/09/20 19:49:15;;;;;;;17.98;9.48;;;;;;;-147.53;100.00;57128.34;10206416;29;20155;-81
2022/09/20 19:54:17;;;;;;;16.80;9.23;;;;;;;-147.53;100.00;57128.34;10198793;28;20036;-81
2022/09/20 19:59:21;;;;;;;18.58;9.73;;;;;;;7.63;92.43;102316.78;10222473;28;20043;-79
2022/09/20 20:04:23;;;;;;;20.88;8.60;;;;;;;7.33;92.54;102336.06;10203784;29;20414;-80
2022/09/20 20:09:40;;;;;;;16.35;8.55;;;;;;;7.22;92.62;102337.16;10201677;29;20121;-80
2022/09/20 20:15:17;;;;;;;21.48;8.85;;;;;;;7.06;92.55;102330.22;10195348;29;20115;-81
2022/09/20 20:20:27;;;;;;;16.10;7.72;;;;;;;6.93;92.76;102339.03;10221469;28;20123;-80
2022/09/20 20:25:58;;;;;;;15.60;7.63;;;;;;;6.86;92.81;102348.22;10193221;29;20364;-80
2022/09/20 20:31:00;;;;;;;14.20;5.90;;;;;;;6.78;92.88;102349.47;10200466;29;20062;-81
2022/09/20 20:36:04;;;;;;;11.60;5.18;;;;;;;6.69;93.07;102364.56;10194136;28;20145;-80
2022/09/20 20:41:09;;;;;;;14.13;5.18;;;;;;;6.62;93.01;102357.19;10201871;29;20071;-80
2022/09/20 20:46:13;;;;;;;12.60;5.32;;;;;;;6.52;93.14;102369.69;10199584;29;20036;-81
2022/09/20 20:51:17;;;;;;;10.93;5.18;;;;;;;6.45;93.05;102364.91;10191979;29;20043;-80
2022/09/20 20:56:28;;;;;;;9.60;4.78;;;;;;;6.36;93.24;102365.28;10201383;29;20055;-80
2022/09/20 21:01:41;;;;;;;11.52;4.88;;;;;;;6.29;93.01;102367.41;10182023;29;20238;-80
2022/09/20 21:06:43;;;;;;;11.63;4.57;;;;;;;6.22;93.75;102370.47;10195613;29;20047;-80
2022/09/20 21:11:47;;;;;;;8.95;4.60;;;;;;;6.12;93.06;102372.50;10200437;29;20559;-80
2022/09/20 21:16:50;;;;;;;10.85;4.38;;;;;;;6.08;93.34;102370.53;10208654;29;20111;-80
2022/09/20 21:21:52;;;;;;;13.75;5.18;;;;;;;6.02;92.99;102377.97;10192717;29;20542;-81
2022/09/20 21:26:53;;;;;;;10.55;4.97;;;;;;;5.95;93.49;102380.97;10192584;29;20349;-81
2022/09/20 21:31:55;;;;;;;10.68;5.15;;;;;;;5.95;93.02;102384.44;10190198;29;20048;-80
2022/09/20 21:36:57;;;;;;;12.23;4.28;;;;;;;5.91;93.36;102390.25;10198287;28;20063;-81
2022/09/20 21:41:58;;;;;;;12.57;5.18;;;;;;;5.82;93.40;102390.59;10203679;29;20103;-81
2022/09/20 21:47:00;;;;;;;13.35;4.80;;;;;;;5.76;93.50;102395.38;10199238;29;20120;-81
2022/09/20 21:52:02;;;;;;;12.77;4.25;;;;;;;5.68;93.50;102399.22;10194451;29;20531;-81
2022/09/20 21:57:04;;;;;;;9.30;4.18;;;;;;;5.65;93.53;102407.72;10202471;29;20039;-81
2022/09/20 22:02:06;;;;;;;17.17;6.32;;;;;;;5.57;93.66;102405.44;10193568;29;20079;-81
2022/09/20 22:07:08;;;;;;;14.50;5.15;;;;;;;5.52;93.86;102407.75;10198219;28;20108;-81
2022/09/20 22:12:10;;;;;;;10.57;4.10;;;;;;;5.46;93.68;102407.34;10196718;29;20111;-80
2022/09/20 22:17:11;;;;;;;9.60;4.55;;;;;;;5.41;93.79;102406.19;10189686;29;20392;-81
2022/09/20 22:22:13;;;;;;;13.45;7.55;;;;;;;5.34;93.52;102410.06;10195159;29;20150;-80
2022/09/20 22:27:15;;;;;;;14.95;6.45;;;;;;;5.31;93.91;102413.38;10200327;29;20043;-80
2022/09/20 22:32:17;;;;;;;14.18;6.57;;;;;;;5.27;93.85;102413.97;10201905;29;20147;-81
2022/09/20 22:37:19;;;;;;;11.82;5.43;;;;;;;5.25;93.97;102419.88;10208069;29;20138;-80
2022/09/20 22:42:20;;;;;;;7.10;3.60;;;;;;;5.13;93.95;102418.28;10229260;28;20055;-81
2022/09/20 22:47:22;;;;;;;8.20;2.97;;;;;;;5.08;94.03;102417.06;10209215;29;20040;-80
2022/09/20 22:52:24;;;;;;;7.00;3.20;;;;;;;5.04;94.25;102432.34;10203730;29;20079;-81
2022/09/20 22:57:25;;;;;;;6.60;2.67;;;;;;;5.01;94.01;102432.16;10206064;29;20044;-81
2022/09/20 23:02:27;;;;;;;9.07;2.65;;;;;;;4.95;94.10;102432.63;10214064;29;20056;-81
2022/09/20 23:07:30;;;;;;;9.25;2.50;;;;;;;4.91;94.24;102422.88;10202535;29;20036;-80
2022/09/20 23:12:31;;;;;;;7.70;2.33;;;;;;;4.84;94.07;102437.13;10200091;28;20711;-80
2022/09/20 23:17:33;;;;;;;6.82;2.33;;;;;;;4.81;93.93;102430.84;10206304;29;20058;-81
2022/09/20 23:22:35;;;;;;;6.00;2.42;;;;;;;4.79;94.18;102433.31;10223370;28;20076;-80
2022/09/20 23:27:36;;;;;;;5.85;2.60;;;;;;;4.77;94.07;102430.63;10205323;29;20040;-81
2022/09/20 23:32:38;;;;;;;7.65;3.60;;;;;;;4.75;94.26;102434.78;10206564;28;20367;-80
2022/09/20 23:37:40;;;;;;;10.88;3.10;;;;;;;4.69;94.10;102431.78;10202949;29;20054;-80
2022/09/20 23:42:41;;;;;;;6.63;2.70;;;;;;;4.65;94.20;102440.16;10211650;29;20492;-80
2022/09/20 23:47:46;;;;;;;7.15;3.10;;;;;;;4.60;94.19;102438.97;10206598;29;20060;-81
2022/09/20 23:52:47;;;;;;;10.25;3.60;;;;;;;4.55;94.43;102433.47;10203912;29;20478;-81
2022/09/20 23:57:56;;;;;;;13.10;4.07;;;;;;;4.53;94.38;102439.34;10202983;29;20032;-81
